Tiempo atmosférico en la estación meteorológica de Capdepera, Illes Balears (57 m.)



Fecha
DESCASC
Temp. máxima en grados centígrados (hora)
DESCASC
Temp. mínima en grados centígrados (hora)
DESCASC
Temp. media en grados centígrados
DESCASC
Racha de viento máxima en m/sg (hora)
DESCASC
Velocidad máxima media en intervalos de 10 minutos(hora)
DESCASC
Precipitaciones diarias en mm
DESCASC
Precipitaciones de 00:00 a 06:00 en mm
DESCASC
Precipitaciones de 06:00 a 12:00 en mm
DESCASC
Precipitaciones de 12:00 a 18:00 en mm
DESCASC
Precipitaciones de 18:00 a 24:00 en mm
DESCASC
24-05-2020 23.2 (13:50) 18.8 (06:10) 21 12.5 (04:10) 9.17 (04:10) 0 0 0 0 0
23-05-2020 26.3 (14:30) 19 (05:30) 22.6 7.78 (23:59) 6.67 (23:40) 0 0 0 0 0
22-05-2020 29.5 (14:10) 19.9 (06:40) 24.7 5 (21:00) 4.72 (21:10) 0 0 0 0 0
21-05-2020 27.3 (12:40) 19.3 (00:00) 23.3 7.78 (17:30) 5.83 (17:10) 0 0 0 0 0
20-05-2020 28.6 (12:10) 18.9 (00:00) 23.8 8.61 (09:20) 6.39 (08:40) 0 0 0 0 0
19-05-2020 28 (11:30) 18.9 (00:00) 23.4 11.11 (13:10) 9.44 (15:40) 0 0 0 0 0
18-05-2020 22.6 (12:00) 18.1 (00:00) 20.4 8.61 (15:00) 7.22 (15:00) 0 0 0 0 0
17-05-2020 22.8 (13:50) 17.9 (00:00) 20.3 13.61 (07:00) 11.11 (06:20) 0 0 0 0 0
16-05-2020 21.1 (13:10) 17.9 (00:00) 19.5 19.17 (09:30) 16.39 (09:30) 0.1 0 0.1 0 0
15-05-2020 23.1 (14:30) 15.8 (00:00) 19.5 10.56 (23:20) 8.89 (23:20) 0 0 0 0 0
14-05-2020 21 (11:50) 15.2 (00:00) 18.1 13.06 (16:50) 6.94 (16:50) 4.8 0 0 4.8 0
13-05-2020 25.7 (13:50) 17.3 (00:00) 21.5 10.28 (18:40) 6.94 (19:10) 0.1 0.1 0 0 0
12-05-2020 24 (09:30) 18.1 (00:00) 21.1 10 (19:40) 8.33 (19:20) 0.6 0 0 0 0.6
11-05-2020 25.2 (13:20) 17.1 (00:00) 21.2 11.94 (16:30) 4.72 (17:10) 0 0 0 0 0
10-05-2020 20.3 (16:50) 17.5 (00:00) 18.9 21.39 (15:10) 13.33 (15:00) 19.8 8.4 10.4 1 0
09-05-2020 21.5 (14:10) 18.6 (00:00) 20.1 7.78 (09:20) 6.67 (09:10) 0.1 0 0 0.1 0
08-05-2020 22.5 (12:40) 18.7 (00:00) 20.6 11.11 (16:10) 9.17 (16:10) 0 0 0 0 0
07-05-2020 24.5 (14:10) 18.9 (00:00) 21.7 9.72 (15:40) 8.06 (14:40) 0 0 0 0 0
06-05-2020 24.7 (16:50) 17.8 (00:00) 21.3 11.94 (11:50) 9.44 (11:40) 0 0 0 0 0
05-05-2020 25.1 (12:10) 18.6 (00:00) 21.9 6.67 (01:20) 5 (00:40) 0 0 0 0 0
04-05-2020 25.3 (15:40) 17.6 (00:00) 21.4 8.33 (11:10) 5.83 (11:50) 0 0 0 0 0
03-05-2020 25 (14:00) 18.5 (00:00) 21.8 8.33 (02:50) 6.67 (04:10) 0 0 0 0 0
02-05-2020 28.1 (14:40) 19.5 (00:00) 23.8 15 (08:40) 8.06 (13:50) 0 0 0 0 0
01-05-2020 27.7 (16:20) 17.5 (00:00) 22.6 10 (18:20) 5.83 (02:50) 0 0 0 0 0
30-04-2020 26.4 (15:40) 17.1 (00:00) 21.8 11.39 (03:30) 5 (01:10) 0 0 0 0 0
29-04-2020 -- (--) -- (--) -- -- (--) -- (--) -- 0 -- 0 0
28-04-2020 23.6 (11:30) 15.5 (00:00) 19.6 8.61 (16:30) 6.67 (16:30) 0 0 0 0 0
27-04-2020 20.8 (10:40) 15.2 (00:00) 18 13.89 (16:00) 8.89 (14:40) 0 0 0 0 0
26-04-2020 22.1 (15:00) 16.6 (00:00) 19.4 6.94 (08:30) 5.83 (15:10) 0 0 0 0 0

Gráficas

Temp. máximas Temp. mínimas Temp. medias Precipitaciones Rachas de viento máximas Velocidades máximas media en intervalos de 10 minutos

Datos horarios

Fecha y hora oficial Temperatura (ºC) Velocidad del viento (km/h) Dirección del viento Racha (km/h) Dirección de racha Precipitación (mm) Presión (hPa) Tendencia (hPa) Humedad (%)
2020-05-25 23:00:00 19.2 32 Norte 37 Norte 0 -- -- 79
2020-05-25 22:00:00 19.4 30 Norte 38 Noroeste 0 -- -- 77
2020-05-25 21:00:00 19.6 33 Norte 38 Norte 0 -- -- 75
2020-05-25 20:00:00 19.9 29 Norte 35 Norte 0 -- -- 70
2020-05-25 19:00:00 20.4 25 Norte 37 Noroeste 0 -- -- 69
2020-05-25 18:00:00 21 25 Norte 38 Norte 0 -- -- 63
2020-05-25 17:00:00 20.5 28 Norte 42 Norte 0 -- -- 68
2020-05-25 16:00:00 19.9 30 Norte 43 Noroeste 0 -- -- 75
2020-05-25 15:00:00 21 31 Norte 38 Noroeste 0 -- -- 69
2020-05-25 14:00:00 22.2 31 Norte 38 Noroeste 0 -- -- 64
2020-05-25 13:00:00 23.1 25 Noroeste 33 Noroeste 0 -- -- 59
2020-05-25 12:00:00 21.3 29 Norte 36 Norte 0 -- -- 65
2020-05-25 11:00:00 -- -- -- -- -- -- -- -- --
2020-05-25 10:00:00 21.1 30 Norte 35 Norte 0 -- -- 65
2020-05-25 09:00:00 20.4 28 Norte 33 Norte 0 -- -- 73
2020-05-25 08:00:00 19.9 25 Norte 32 Noroeste 0 -- -- 79
2020-05-25 07:00:00 19.9 24 Noroeste 33 Noroeste 0 -- -- 80
2020-05-25 06:00:00 19.6 23 Noroeste 31 Noroeste 0 -- -- 64
2020-05-25 05:00:00 20.2 21 Norte 27 Norte 0 -- -- 46
2020-05-25 04:00:00 19.8 10 Noroeste 15 Noroeste 0 -- -- 46
2020-05-25 03:00:00 19.4 8 Noroeste 12 Noroeste 0 -- -- 45
2020-05-25 02:00:00 18.6 7 Noroeste 10 Noroeste 0 -- -- 48
2020-05-25 01:00:00 18.7 8 Noroeste 10 Noroeste 0 -- -- 58
2020-05-25 00:00:00 18.9 6 Noroeste 14 Norte 0 -- -- 65
2020-05-24 23:00:00 19.1 11 Norte 16 Norte 0 -- -- 63
2020-05-24 22:00:00 19.1 12 Norte 18 Norte 0 -- -- 63
2020-05-24 21:00:00 19.2 14 Norte 21 Norte 0 -- -- 66
2020-05-24 20:00:00 19.7 17 Norte 24 Norte 0 -- -- 64
2020-05-24 19:00:00 20.3 18 Norte 22 Norte 0 -- -- 61
2020-05-24 18:00:00 21.8 18 Norte 30 Norte 0 -- -- 60
2020-05-24 17:00:00 21.9 25 Norte 32 Norte 0 -- -- 59
2020-05-24 16:00:00 21.8 27 Norte 35 Norte 0 -- -- 59
2020-05-24 15:00:00 21.9 31 Norte 38 Noroeste 0 -- -- 59
2020-05-24 14:00:00 23 31 Norte 34 Noroeste 0 -- -- 55
2020-05-24 13:00:00 21.8 28 Norte 36 Norte 0 -- -- 60
2020-05-24 12:00:00 20.9 28 Norte 36 Norte 0 -- -- 68
2020-05-24 11:00:00 21 27 Norte 38 Norte 0 -- -- 71
2020-05-24 10:00:00 20.4 28 Norte 45 Norte 0 -- -- 70
2020-05-24 09:00:00 19.6 30 Norte 39 Norte 0 -- -- 78
2020-05-24 08:00:00 19.3 32 Norte 40 Norte 0 -- -- 78
2020-05-24 07:00:00 19.1 30 Norte 36 Norte 0 -- -- 76
2020-05-24 06:00:00 19 31 Norte 40 Nordeste 0 -- -- 81
2020-05-24 05:00:00 19.1 33 Nordeste 45 Nordeste 0 -- -- 84
2020-05-24 04:00:00 19.5 31 Norte 40 Nordeste 0 -- -- 87
2020-05-24 03:00:00 19.9 28 Nordeste 40 Nordeste 0 -- -- 85
2020-05-24 02:00:00 20.3 27 Norte 37 Norte 0 -- -- 87
2020-05-24 01:00:00 20.6 27 Nordeste 33 Nordeste 0 -- -- 88
2020-05-24 00:00:00 20.6 23 Nordeste 28 Nordeste 0 -- -- 87
2020-05-23 23:00:00 20.9 22 Nordeste 27 Nordeste 0 -- -- 93
2020-05-23 22:00:00 20.8 19 Norte 25 Norte 0 -- -- 94
2020-05-23 21:00:00 21 8 Este 13 Sur 0 -- -- 91
2020-05-23 20:00:00 21.5 13 Sur 17 Sur 0 -- -- 84
2020-05-23 19:00:00 22.6 15 Sur 19 Sur 0 -- -- 80
2020-05-23 18:00:00 23.7 17 Sur 20 Sur 0 -- -- 75
2020-05-23 17:00:00 24.6 18 Sur 22 Sur 0 -- -- 72
2020-05-23 16:00:00 25.5 19 Sur 25 Sur 0 -- -- 69
2020-05-23 15:00:00 25.8 19 Sur 24 Sur 0 -- -- 70
2020-05-23 14:00:00 25.9 21 Sur 24 Sur 0 -- -- 68
2020-05-23 13:00:00 25.9 17 Sur 21 Sur 0 -- -- 73
2020-05-23 12:00:00 25.2 15 Sur 23 Sur 0 -- -- 75
2020-05-23 11:00:00 23.5 19 Sur 26 Sur 0 -- -- 80
2020-05-23 10:00:00 21.8 17 Sur 22 Sur 0 -- -- 86
2020-05-23 09:00:00 22.2 14 Sur 19 Sur 0 -- -- 84
2020-05-23 08:00:00 22.2 9 Sur 10 Sur 0 -- -- 68
2020-05-23 07:00:00 20.6 0 Calma 12 Sudoeste 0 -- -- 65
2020-05-23 06:00:00 19.1 5 Sudoeste 14 Sur 0 -- -- 83
2020-05-23 05:00:00 19.5 0 Calma 14 Sur 0 -- -- 96
2020-05-23 04:00:00 19.9 6 Sudoeste 16 Sur 0 -- -- 95
2020-05-23 03:00:00 20.3 12 Sur 15 Sur 0 -- -- 92
2020-05-23 02:00:00 20.5 11 Sur 14 Sur 0 -- -- 85
2020-05-23 01:00:00 21 10 Sur 13 Sur 0 -- -- 79
2020-05-23 00:00:00 21 9 Sudoeste 16 Sudoeste 0 -- -- 82
2020-05-22 23:00:00 21.6 12 Sudoeste 17 Sudoeste 0 -- -- 82
2020-05-22 22:00:00 22 12 Sudoeste 18 Sudoeste 0 -- -- 82
2020-05-22 21:00:00 22.5 16 Sur 18 Sur 0 -- -- 81
2020-05-22 20:00:00 23.3 16 Sur 17 Sur 0 -- -- 72
2020-05-22 19:00:00 24.1 15 Sur 17 Sur 0 -- -- 66
2020-05-22 18:00:00 25.7 11 Sur 12 Sur 0 -- -- 60
2020-05-22 17:00:00 26.5 10 Sudeste 12 Sudeste 0 -- -- 60
2020-05-22 16:00:00 26.8 6 Sur 10 Sur 0 -- -- 62
2020-05-22 15:00:00 28.1 9 Sur 14 Sur 0 -- -- 51
2020-05-22 14:00:00 29.1 7 Sur 10 Sur 0 -- -- 42
2020-05-22 13:00:00 26.8 6 Sur 9 Sur 0 -- -- 60
2020-05-22 12:00:00 26.3 6 Sur 8 Sur 0 -- -- 41
2020-05-22 11:00:00 26.2 5 Sudeste 7 Sudeste 0 -- -- 42
2020-05-22 10:00:00 25 2 Sudeste 6 Sur 0 -- -- 63
2020-05-22 09:00:00 24.3 3 Sudeste 6 Este 0 -- -- 56
2020-05-22 08:00:00 22.8 0 Calma 7 Sudeste 0 -- -- 72
2020-05-22 07:00:00 20.9 3 Este 7 Este 0 -- -- 82
2020-05-22 06:00:00 21.8 4 Oeste 9 Sur 0 -- -- 50
2020-05-22 05:00:00 20.8 5 Sudoeste 10 Oeste 0 -- -- 58
2020-05-22 04:00:00 20.4 0 Calma 7 Noroeste 0 -- -- 65
2020-05-22 03:00:00 20.4 4 Noroeste 7 Noroeste 0 -- -- 70
2020-05-22 02:00:00 20.8 0 Calma 5 Este 0 -- -- 78
2020-05-22 01:00:00 20.6 0 Calma 10 Noroeste 0 -- -- 82
2020-05-22 00:00:00 20.8 10 Noroeste 14 Noroeste 0 -- -- 81
2020-05-21 23:00:00 21 7 Noroeste 12 Noroeste 0 -- -- 81
2020-05-21 22:00:00 21.2 5 Oeste 17 Noroeste 0 -- -- 77
2020-05-21 21:00:00 21.4 15 Noroeste 24 Norte 0 -- -- 85
2020-05-21 20:00:00 22.3 4 Norte 17 Sudoeste 0 -- -- 71
2020-05-21 19:00:00 22.3 15 Sudoeste 27 Sur 0 -- -- 72
2020-05-21 18:00:00 22.9 16 Sudoeste 28 Sur 0 -- -- 64
2020-05-21 17:00:00 23.5 20 Sur 27 Sudoeste 0 -- -- 69
2020-05-21 16:00:00 24.4 18 Sur 26 Sur 0 -- -- 64
2020-05-21 15:00:00 24.6 15 Sur 26 Sudoeste 0 -- -- 47
2020-05-21 14:00:00 25.2 12 Sur 19 Sur 0 -- -- 64
2020-05-21 13:00:00 26.9 6 Sur 9 Sur 0 -- -- 64
2020-05-21 12:00:00 26.2 0 Calma 6 Norte 0 -- -- 65
2020-05-21 11:00:00 24.7 0 Calma 8 Sur 0 -- -- 66
2020-05-21 10:00:00 24.6 5 Sudoeste 9 Sur 0 -- -- 66
2020-05-21 09:00:00 23.9 5 Sur 7 Sur 0 -- -- 61
2020-05-21 08:00:00 23.2 2 Sur 5 Sur 0 -- -- 66
2020-05-21 07:00:00 20.9 0 Calma 10 Noroeste 0 -- -- 73
2020-05-21 06:00:00 21 5 Noroeste 8 Noroeste 0 -- -- 51
2020-05-21 05:00:00 22 4 Noroeste 10 Noroeste 0 -- -- 43
2020-05-21 04:00:00 22.6 8 Noroeste 12 Noroeste 0 -- -- 39
2020-05-21 03:00:00 22.9 9 Noroeste 13 Noroeste 0 -- -- 37
2020-05-21 02:00:00 21.6 7 Noroeste 12 Oeste 0 -- -- 52
2020-05-21 01:00:00 21.4 6 Sudoeste 10 Sudoeste 0 -- -- 52
2020-05-21 00:00:00 19.3 2 Sudoeste 14 Sur 0 -- -- 85
2020-05-20 23:00:00 20.1 12 Sudoeste 17 Sur 0 -- -- 95
2020-05-20 22:00:00 20.4 13 Sur 14 Sur 0 -- -- 91
2020-05-20 21:00:00 20.7 13 Sur 15 Sur 0 -- -- 88
2020-05-20 20:00:00 21.1 14 Sudeste 15 Sur 0 -- -- 87
2020-05-20 19:00:00 22.1 12 Sur 15 Sur 0 -- -- 84
2020-05-20 18:00:00 24.1 12 Sur 19 Sudoeste 0 -- -- 70
2020-05-20 17:00:00 24.8 12 Sur 26 Sudoeste 0 -- -- 50
2020-05-20 16:00:00 23.7 14 Sur 27 Sudoeste 0 -- -- 49
2020-05-20 15:00:00 23.2 15 Sudoeste 23 Sur 0 -- -- 61
2020-05-20 14:00:00 26.8 11 Sur 17 Sudeste 0 -- -- 62
2020-05-20 13:00:00 26 7 Este 11 Este 0 -- -- 52
2020-05-20 12:00:00 28.2 4 Sudeste 9 Noroeste 0 -- -- 29
2020-05-20 11:00:00 28 8 Noroeste 17 Noroeste 0 -- -- 33
2020-05-20 10:00:00 25.1 13 Noroeste 31 Noroeste 0 -- -- 49
2020-05-20 09:00:00 22 20 Noroeste 28 Noroeste 0 -- -- 63
2020-05-20 08:00:00 21.8 10 Noroeste 14 Noroeste 0 -- -- 68
2020-05-20 07:00:00 20.3 0 Calma 13 Norte 0 -- -- 68
2020-05-20 06:00:00 20 0 Calma 10 Sudeste 0 -- -- 71
2020-05-20 05:00:00 20.1 4 Sudeste 10 Norte 0 -- -- 68
2020-05-20 04:00:00 21.4 0 Calma 13 Norte 0 -- -- 56
2020-05-20 03:00:00 22.2 10 Oeste 17 Oeste 0 -- -- 42
2020-05-20 02:00:00 21 9 Sudoeste 16 Sudoeste 0 -- -- 55
2020-05-20 01:00:00 20.5 8 Sudoeste 15 Sudoeste 0 -- -- 59
2020-05-20 00:00:00 20.3 0 Calma 9 Sur 0 -- -- 64
2020-05-19 23:00:00 19.6 6 Sur 9 Sur 0 -- -- 67
2020-05-19 22:00:00 19.5 4 Sudoeste 8 Sudoeste 0 -- -- 66
2020-05-19 21:00:00 20 0 Calma 9 Sur 0 -- -- 73
2020-05-19 20:00:00 20.7 0 Calma 14 Sudeste 0 -- -- 67
2020-05-19 19:00:00 21.2 10 Sudeste 21 Norte 0 -- -- 68
2020-05-19 18:00:00 23.7 20 Norte 26 Norte 0 -- -- 52
2020-05-19 17:00:00 23.6 0 Calma 35 Norte 0 -- -- 56
2020-05-19 16:00:00 23.3 31 Norte 38 Norte 0 -- -- 61
2020-05-19 15:00:00 23.3 30 Norte 37 Norte 0 -- -- 60
2020-05-19 14:00:00 25 27 Norte 40 Norte 0 -- -- 51
2020-05-19 13:00:00 26.4 23 Noroeste 37 Norte 0 -- -- 37
2020-05-19 12:00:00 26.9 19 Norte 32 Norte 0 -- -- 34
2020-05-19 11:00:00 27.5 13 Norte 26 Norte 0 -- -- 33
2020-05-19 10:00:00 27 9 Norte 23 Oeste 0 -- -- 34
2020-05-19 09:00:00 24.5 6 Noroeste 18 Nordeste 0 -- -- 41
2020-05-19 08:00:00 20.2 8 Sudoeste 20 Noroeste 0 -- -- 55
2020-05-19 07:00:00 19.1 15 Noroeste 26 Noroeste 0 -- -- 62
2020-05-19 06:00:00 19.6 10 Oeste 20 Oeste 0 -- -- 48
2020-05-19 05:00:00 18.9 13 Oeste 18 Noroeste 0 -- -- 53
2020-05-19 04:00:00 19.1 8 Oeste 15 Sudoeste 0 -- -- 53
2020-05-19 03:00:00 19.5 8 Oeste 17 Oeste 0 -- -- 54
2020-05-19 02:00:00 19.8 7 Sudoeste 23 Norte 0 -- -- 53
2020-05-19 01:00:00 19.8 7 Noroeste 21 Noroeste 0 -- -- 55
2020-05-19 00:00:00 19.8 11 Oeste 22 Oeste 0 -- -- 53
2020-05-18 23:00:00 19.5 11 Oeste 17 Oeste 0 -- -- 55
2020-05-18 22:00:00 19.8 10 Sudoeste 14 Oeste 0 -- -- 54
2020-05-18 21:00:00 19.6 6 Oeste 13 Oeste 0 -- -- 57
2020-05-18 20:00:00 20.1 5 Oeste 12 Oeste 0 -- -- 59
2020-05-18 19:00:00 20.2 6 Oeste 13 Oeste 0 -- -- 53
2020-05-18 18:00:00 20.1 2 Oeste 12 Sur 0 -- -- 57
2020-05-18 17:00:00 20.2 3 Sudoeste 11 Noroeste 0 -- -- 59
2020-05-18 16:00:00 20.2 13 Noroeste 28 Noroeste 0 -- -- 61
2020-05-18 15:00:00 20.8 26 Noroeste 31 Noroeste 0 -- -- 55
2020-05-18 14:00:00 22.1 20 Noroeste 25 Noroeste 0 -- -- 53
2020-05-18 13:00:00 20.8 14 Noroeste 31 Noroeste 0 -- -- 60
2020-05-18 12:00:00 22.4 16 Noroeste 30 Norte 0 -- -- 55
2020-05-18 11:00:00 21.9 17 Norte 27 Norte 0 -- -- 53
2020-05-18 10:00:00 20.7 2 Sudoeste 12 Oeste 0 -- -- 72
2020-05-18 09:00:00 20.1 6 Este 10 Nordeste 0 -- -- 74
2020-05-18 08:00:00 19.8 8 Noroeste 13 Oeste 0 -- -- 55
2020-05-18 07:00:00 18.7 3 Oeste 13 Oeste 0 -- -- 59
2020-05-18 06:00:00 18.6 8 Oeste 15 Oeste 0 -- -- 62
2020-05-18 05:00:00 18.7 5 Oeste 14 Oeste 0 -- -- 62
2020-05-18 04:00:00 18.4 9 Oeste 15 Oeste 0 -- -- 66
2020-05-18 03:00:00 18.5 6 Oeste 11 Sudoeste 0 -- -- 70
2020-05-18 02:00:00 18.5 7 Sudoeste 10 Noroeste 0 -- -- 68
2020-05-18 01:00:00 18.4 7 Noroeste 14 Oeste 0 -- -- 67
2020-05-18 00:00:00 18.1 2 Oeste 10 Sudoeste 0 -- -- 70
2020-05-17 23:00:00 18.1 3 Sudoeste 15 Oeste 0 -- -- 72
2020-05-17 22:00:00 18 10 Noroeste 13 Noroeste 0 -- -- 75
2020-05-17 21:00:00 18.7 8 Norte 22 Noroeste 0 -- -- 76
2020-05-17 20:00:00 19.3 13 Norte 19 Norte 0 -- -- 74
2020-05-17 19:00:00 19.7 14 Norte 23 Noroeste 0 -- -- 76
2020-05-17 18:00:00 20.4 22 Noroeste 29 Norte 0 -- -- 71
2020-05-17 17:00:00 21.3 23 Noroeste 36 Norte 0 -- -- 58
2020-05-17 16:00:00 21.5 28 Norte 40 Norte 0 -- -- 69
2020-05-17 15:00:00 21.6 27 Noroeste 32 Norte 0 -- -- 72
2020-05-17 14:00:00 22.7 23 Noroeste 32 Noroeste 0 -- -- 67
2020-05-17 13:00:00 22 26 Noroeste 31 Noroeste 0 -- -- 70
2020-05-17 12:00:00 21.7 21 Noroeste 27 Noroeste 0 -- -- 68
2020-05-17 11:00:00 21.3 19 Noroeste 29 Norte 0 -- -- 67
2020-05-17 10:00:00 20.6 23 Norte 34 Norte 0 -- -- 69
2020-05-17 09:00:00 19.7 27 Norte 39 Norte 0 -- -- 71
2020-05-17 08:00:00 19.2 33 Norte 45 Norte 0 -- -- 73
2020-05-17 07:00:00 18.4 38 Norte 49 Norte 0 -- -- 76
2020-05-17 06:00:00 18.1 30 Norte 36 Norte 0 -- -- 80
2020-05-17 05:00:00 18 26 Norte 38 Norte 0 -- -- 83
2020-05-17 04:00:00 18 32 Norte 43 Norte 0 -- -- 82
2020-05-17 03:00:00 18.3 37 Norte 42 Norte 0 -- -- 80
2020-05-17 02:00:00 18.3 34 Norte 44 Norte 0 -- -- 84
2020-05-17 01:00:00 18.2 39 Norte 46 Norte 0 -- -- 82
2020-05-17 00:00:00 18.3 38 Norte 45 Norte 0 -- -- 83
2020-05-16 23:00:00 18.3 36 Norte 45 Norte 0 -- -- 84
2020-05-16 22:00:00 18.2 40 Norte 50 Norte 0 -- -- 82
2020-05-16 21:00:00 18.1 42 Norte 51 Norte 0 -- -- 85
2020-05-16 20:00:00 18.2 45 Norte 58 Norte 0 -- -- 86
2020-05-16 19:00:00 18.6 47 Norte 59 Norte 0 -- -- 85
2020-05-16 18:00:00 18.6 46 Norte 58 Noroeste 0 -- -- 86
2020-05-16 17:00:00 19 47 Norte 55 Norte 0 -- -- 82
2020-05-16 16:00:00 19.1 42 Norte 65 Norte 0 -- -- 79
2020-05-16 15:00:00 19.6 49 Norte 65 Noroeste 0 -- -- 74
2020-05-16 14:00:00 20.1 52 Norte 61 Norte 0 -- -- 74
2020-05-16 13:00:00 21 43 Norte 54 Norte 0 -- -- 72
2020-05-16 12:00:00 19.7 45 Norte 57 Nordeste 0 -- -- 76
2020-05-16 11:00:00 18.9 44 Norte 61 Norte 0 -- -- 81
2020-05-16 10:00:00 18.7 49 Norte 69 Norte 0 -- -- 83
2020-05-16 09:00:00 18.7 50 Nordeste 65 Nordeste 0 -- -- 83
2020-05-16 08:00:00 18.2 50 Norte 63 Nordeste 0 -- -- 81
2020-05-16 07:00:00 18 50 Norte 65 Nordeste 0.1 -- -- 84
2020-05-16 06:00:00 18.2 47 Norte 55 Norte 0 -- -- 87
2020-05-16 05:00:00 18.3 45 Norte 58 Norte 0 -- -- 90
2020-05-16 04:00:00 18.1 43 Norte 51 Norte 0 -- -- 86
2020-05-16 03:00:00 18.3 28 Norte 46 Norte 0 -- -- 88
2020-05-16 02:00:00 18.2 37 Norte 45 Norte 0 -- -- 89
2020-05-16 01:00:00 18.5 18 Norte 35 Norte 0 -- -- 88
2020-05-16 00:00:00 18.4 17 Norte 38 Norte 0 -- -- 87
2020-05-15 23:00:00 18.5 27 Nordeste 31 Nordeste 0 -- -- 86
2020-05-15 22:00:00 18.8 23 Nordeste 31 Nordeste 0 -- -- 81
2020-05-15 21:00:00 18.9 24 Nordeste 30 Este 0 -- -- 84
2020-05-15 20:00:00 19 18 Este 23 Este 0 -- -- 84
2020-05-15 19:00:00 19.5 18 Sudeste 21 Sudeste 0 -- -- 81
2020-05-15 18:00:00 19.6 16 Nordeste 22 Nordeste 0 -- -- 80
2020-05-15 17:00:00 19.9 11 Nordeste 17 Nordeste 0 -- -- 80
2020-05-15 16:00:00 20.2 10 Este 14 Nordeste 0 -- -- 79
2020-05-15 15:00:00 22.2 13 Sur 18 Sur 0 -- -- 71
2020-05-15 14:00:00 22.2 9 Sur 19 Sur 0 -- -- 72
2020-05-15 13:00:00 21.9 15 Sur 19 Sur 0 -- -- 72
2020-05-15 12:00:00 22.7 13 Sur 19 Sur 0 -- -- 71
2020-05-15 11:00:00 22.3 14 Sur 18 Sur 0 -- -- 73
2020-05-15 10:00:00 21.3 10 Sur 14 Sur 0 -- -- 78
2020-05-15 09:00:00 18.7 10 Sur 18 Sudoeste 0 -- -- 83
2020-05-15 08:00:00 18.8 3 Sudoeste 11 Sudoeste 0 -- -- 78
2020-05-15 07:00:00 16.3 4 Sudoeste 11 Sudoeste 0 -- -- 86
2020-05-15 06:00:00 16 7 Sudoeste 14 Sudoeste 0 -- -- 87
2020-05-15 05:00:00 16 3 Sudoeste 20 Oeste 0 -- -- 85
2020-05-15 04:00:00 16.1 8 Oeste 19 Sudoeste 0 -- -- 85
2020-05-15 03:00:00 16.7 8 Sudoeste 27 Sudoeste 0 -- -- 83
2020-05-15 02:00:00 16.9 9 Oeste 34 Sur 0 -- -- 82
2020-05-15 01:00:00 17 9 Sudoeste 31 Oeste 0 -- -- 81
2020-05-15 00:00:00 16.6 10 Oeste 27 Sudoeste 0 -- -- 84
2020-05-14 23:00:00 17.2 10 Oeste 32 Noroeste 0 -- -- 69
2020-05-14 22:00:00 17 12 Oeste 39 Sudoeste 0 -- -- 69
2020-05-14 21:00:00 16.7 9 Sudoeste 36 Sudoeste 0 -- -- 74
2020-05-14 20:00:00 16.9 15 Sudoeste 40 Sudoeste 0 -- -- 69
2020-05-14 19:00:00 17.6 14 Oeste 39 Oeste 0 -- -- 71
2020-05-14 18:00:00 17.9 9 Oeste 37 Sudoeste 0 -- -- 78
2020-05-14 17:00:00 17.2 21 Sudoeste 47 Sudoeste 0 -- -- 82
2020-05-14 16:00:00 17.4 5 Sur 20 Sur 1.2 -- -- 98
2020-05-14 15:00:00 15.4 10 Sudoeste 33 Sudoeste 2 -- -- 96
2020-05-14 14:00:00 16.6 19 Sudoeste 35 Sur 1.6 -- -- 95
2020-05-14 13:00:00 19.3 14 Sudeste 23 Sudeste 0 -- -- 77
2020-05-14 12:00:00 20.7 13 Sudeste 16 Sudeste 0 -- -- 70
2020-05-14 11:00:00 20.6 9 Sudeste 12 Nordeste 0 -- -- 73
2020-05-14 10:00:00 20.4 6 Nordeste 12 Norte 0 -- -- 75
2020-05-14 09:00:00 19.9 2 Nordeste 8 Este 0 -- -- 78
2020-05-14 08:00:00 19 0 Calma 4 Sudeste 0 -- -- 81
2020-05-14 07:00:00 16.8 3 Sudoeste 7 Sudoeste 0 -- -- 89
2020-05-14 06:00:00 16.9 0 Calma 4 Noroeste 0 -- -- 88
2020-05-14 05:00:00 17 0 Calma 16 Sudeste 0 -- -- 87
2020-05-14 04:00:00 17.4 10 Sudeste 17 Sudeste 0 -- -- 88
2020-05-14 03:00:00 17 8 Sur 11 Sur 0 -- -- 84
2020-05-14 02:00:00 16.9 3 Sur 10 Noroeste 0 -- -- 84
2020-05-14 01:00:00 17.1 0 Calma 9 Norte 0 -- -- 82
2020-05-14 00:00:00 17.4 2 Sudoeste 9 Sudeste 0 -- -- 76
2020-05-13 23:00:00 17.9 4 Sudoeste 14 Oeste 0 -- -- 77
2020-05-13 22:00:00 18.3 4 Sudoeste 14 Sudoeste 0 -- -- 77
2020-05-13 21:00:00 19.2 3 Sudoeste 18 Sur 0 -- -- 75
2020-05-13 20:00:00 19.9 12 Norte 32 Nordeste 0 -- -- 74
2020-05-13 19:00:00 19.8 22 Nordeste 37 Nordeste 0 -- -- 78
2020-05-13 18:00:00 24.1 3 Oeste 20 Oeste 0 -- -- 39
2020-05-13 17:00:00 24.9 7 Oeste 29 Sudoeste 0 -- -- 36
2020-05-13 16:00:00 24.8 10 Oeste 33 Oeste 0 -- -- 37
2020-05-13 15:00:00 25.1 10 Sudoeste 34 Oeste 0 -- -- 43
2020-05-13 14:00:00 25.3 10 Sudoeste 31 Sudoeste 0 -- -- 40
2020-05-13 13:00:00 25.4 8 Sudoeste 34 Sudoeste 0 -- -- 40
2020-05-13 12:00:00 24.9 9 Oeste 32 Oeste 0 -- -- 41
2020-05-13 11:00:00 24 9 Oeste 28 Sudoeste 0 -- -- 54
2020-05-13 10:00:00 22.4 7 Oeste 23 Oeste 0 -- -- 63
2020-05-13 09:00:00 20.5 8 Sudoeste 26 Sudoeste 0 -- -- 75
2020-05-13 08:00:00 19.1 6 Oeste 25 Sudoeste 0 -- -- 82
2020-05-13 07:00:00 17.8 8 Sudoeste 25 Oeste 0 -- -- 87
2020-05-13 06:00:00 18.2 9 Sudoeste 34 Sudoeste 0 -- -- 86
2020-05-13 05:00:00 18.2 12 Oeste 32 Oeste 0.1 -- -- 87
2020-05-13 04:00:00 18.5 3 Sudoeste 14 Oeste 0 -- -- 87
2020-05-13 03:00:00 18.9 4 Sudoeste 17 Sudeste 0 -- -- 90
2020-05-13 02:00:00 19.2 18 Este 22 Este 0 -- -- 88
2020-05-13 01:00:00 19.1 9 Nordeste 18 Este 0 -- -- 89
2020-05-13 00:00:00 19.1 9 Nordeste 19 Este 0 -- -- 84
2020-05-12 23:00:00 18.6 14 Nordeste 24 Norte 0.6 -- -- 91
2020-05-12 22:00:00 19.1 3 Noroeste 21 Este 0 -- -- 87
2020-05-12 21:00:00 19.1 21 Este 33 Este 0 -- -- 88
2020-05-12 20:00:00 19.3 26 Este 36 Este 0 -- -- 87
2020-05-12 19:00:00 19.6 27 Este 32 Este 0 -- -- 84
2020-05-12 18:00:00 20.4 14 Sudeste 18 Sudeste 0 -- -- 81
2020-05-12 17:00:00 20.7 11 Este 15 Este 0 -- -- 84
2020-05-12 16:00:00 21.2 11 Este 15 Sudeste 0 -- -- 84
2020-05-12 15:00:00 22.3 11 Sudeste 18 Sur 0 -- -- 79
2020-05-12 14:00:00 22.9 13 Sur 15 Sur 0 -- -- 79
2020-05-12 13:00:00 23.7 9 Sur 12 Sur 0 -- -- 76
2020-05-12 12:00:00 22.9 4 Sudeste 11 Sur 0 -- -- 76
2020-05-12 11:00:00 22.8 8 Sur 13 Sur 0 -- -- 68
2020-05-12 10:00:00 23.2 0 Calma 23 Sur 0 -- -- 65
2020-05-12 09:00:00 22.1 2 Sudoeste 21 Sudoeste 0 -- -- 69
2020-05-12 08:00:00 19.8 12 Sudoeste 28 Sudoeste 0 -- -- 76
2020-05-12 07:00:00 18.6 8 Sudoeste 17 Oeste 0 -- -- 75
2020-05-12 06:00:00 18.7 9 Sudoeste 31 Oeste 0 -- -- 74
2020-05-12 05:00:00 19.2 12 Sudoeste 30 Sur 0 -- -- 70
2020-05-12 04:00:00 19.5 15 Oeste 35 Sudoeste 0 -- -- 69
2020-05-12 03:00:00 18.5 14 Sudoeste 32 Sudoeste 0 -- -- 81
2020-05-12 02:00:00 18.7 14 Oeste 33 Oeste 0 -- -- 80
2020-05-12 01:00:00 18.8 12 Sudoeste 32 Oeste 0 -- -- 76
2020-05-12 00:00:00 18.7 12 Sudoeste 30 Oeste 0 -- -- 75
2020-05-11 23:00:00 18.7 12 Sudoeste 31 Oeste 0 -- -- 71
2020-05-11 22:00:00 19.4 12 Sudoeste 31 Sudoeste 0 -- -- 68
2020-05-11 21:00:00 19.8 11 Sudoeste 29 Sudoeste 0 -- -- 72
2020-05-11 20:00:00 21.4 10 Oeste 35 Sudoeste 0 -- -- 67
2020-05-11 19:00:00 22.4 10 Oeste 36 Oeste 0 -- -- 53
2020-05-11 18:00:00 23.3 12 Sudoeste 40 Sudoeste 0 -- -- 47
2020-05-11 17:00:00 24.1 17 Sudoeste 43 Sudoeste 0 -- -- 43
2020-05-11 16:00:00 24.1 15 Sudoeste 41 Sudoeste 0 -- -- 48
2020-05-11 15:00:00 24.5 14 Sudoeste 40 Oeste 0 -- -- 42
2020-05-11 14:00:00 24.5 15 Sudoeste 41 Oeste 0 -- -- 41
2020-05-11 13:00:00 24.6 10 Oeste 40 Oeste 0 -- -- 47
2020-05-11 12:00:00 23.8 10 Sudoeste 39 Oeste 0 -- -- 51
2020-05-11 11:00:00 23 9 Sudoeste 33 Oeste 0 -- -- 57
2020-05-11 10:00:00 22 8 Sudoeste 38 Oeste 0 -- -- 58
2020-05-11 09:00:00 20 13 Sudoeste 36 Oeste 0 -- -- 66
2020-05-11 08:00:00 18.8 13 Sudoeste 37 Sudoeste 0 -- -- 69
2020-05-11 07:00:00 17.8 13 Sudoeste 31 Sudoeste 0 -- -- 73
2020-05-11 06:00:00 17.7 13 Oeste 34 Sudoeste 0 -- -- 72
2020-05-11 05:00:00 17.3 8 Oeste 24 Oeste 0 -- -- 74
2020-05-11 04:00:00 17.5 10 Oeste 27 Oeste 0 -- -- 77
2020-05-11 03:00:00 17.6 8 Oeste 28 Oeste 0 -- -- 85
2020-05-11 02:00:00 17.7 10 Oeste 26 Oeste 0 -- -- 86
2020-05-11 01:00:00 18.3 10 Oeste 26 Oeste 0 -- -- 76
2020-05-11 00:00:00 18.3 12 Sudoeste 32 Sudoeste 0 -- -- 79
2020-05-10 23:00:00 18.1 12 Sudoeste 34 Sudoeste 0 -- -- 83
2020-05-10 22:00:00 18.1 9 Oeste 31 Sudoeste 0 -- -- 86
2020-05-10 21:00:00 18.3 9 Oeste 26 Sudoeste 0 -- -- 82
2020-05-10 20:00:00 18.6 10 Sudoeste 33 Sudoeste 0 -- -- 73
2020-05-10 19:00:00 19.5 9 Oeste 34 Oeste 0 -- -- 64
2020-05-10 18:00:00 20 9 Sudoeste 47 Sudoeste 0 -- -- 65
2020-05-10 17:00:00 19.6 21 Sudoeste 53 Sudoeste 0 -- -- 73
2020-05-10 16:00:00 18.5 28 Sudoeste 77 Sur 0.2 -- -- 87
2020-05-10 15:00:00 18.1 48 Sur 73 Sur 0.4 -- -- 78
2020-05-10 14:00:00 18 47 Sur 55 Sur 0.4 -- -- 95
2020-05-10 13:00:00 17.8 9 Oeste 42 Oeste 0 -- -- 90
2020-05-10 12:00:00 17.9 12 Sudoeste 50 Sudoeste 0.4 -- -- 92
2020-05-10 11:00:00 18 10 Sudoeste 48 Sudoeste 0.1 -- -- 98
2020-05-10 10:00:00 17.9 27 Sur 49 Sur 2.6 -- -- --
2020-05-10 09:00:00 18.1 14 Sudoeste 35 Sudeste 0.7 -- -- 99
2020-05-10 08:00:00 17.9 15 Sur 32 Este 2.3 -- -- 99
2020-05-10 07:00:00 17.8 5 Sudoeste 24 Oeste 4.3 -- -- 96
2020-05-10 06:00:00 17.9 3 Oeste 36 Sudoeste 4.4 -- -- --
2020-05-10 05:00:00 18.2 7 Sudoeste 31 Sur 4 -- -- 99
2020-05-10 04:00:00 19.1 11 Sudeste 14 Sudeste 0 -- -- 90
2020-05-10 03:00:00 19.1 11 Sur 18 Sur 0 -- -- 90
2020-05-10 02:00:00 19.2 13 Sur 17 Sur 0 -- -- 90
2020-05-10 01:00:00 19.3 12 Sudeste 15 Sudeste 0 -- -- 90
2020-05-10 00:00:00 19.4 12 Sudeste 21 Sudeste 0 -- -- 93
2020-05-09 23:00:00 19.5 15 Sudeste 19 Sudeste 0 -- -- 91
2020-05-09 22:00:00 19.4 13 Sudeste 18 Sudeste 0 -- -- 94
2020-05-09 21:00:00 19.5 11 Sudeste 17 Sudeste 0 -- -- 93
2020-05-09 20:00:00 19.7 12 Este 15 Este 0 -- -- 92
2020-05-09 19:00:00 19.9 4 Nordeste 14 Nordeste 0 -- -- 90
2020-05-09 18:00:00 20.2 14 Nordeste 19 Norte 0 -- -- 90
2020-05-09 17:00:00 21.2 17 Nordeste 18 Nordeste 0 -- -- 84
2020-05-09 16:00:00 21.1 7 Nordeste 10 Nordeste 0 -- -- 85
2020-05-09 15:00:00 20.6 4 Este 7 Sur 0 -- -- 85
2020-05-09 14:00:00 21 3 Sudeste 8 Sur 0 -- -- 83
2020-05-09 13:00:00 20 3 Sudeste 19 Sur 0.1 -- -- 92
2020-05-09 12:00:00 20.4 17 Sur 21 Sur 0 -- -- 88
2020-05-09 11:00:00 19.5 6 Este 22 Nordeste 0 -- -- 90
2020-05-09 10:00:00 19.2 14 Este 28 Este 0 -- -- 91
2020-05-09 09:00:00 19.1 23 Este 26 Este 0 -- -- 92
2020-05-09 08:00:00 19 12 Nordeste 16 Nordeste 0 -- -- 93
2020-05-09 07:00:00 18.7 4 Noroeste 12 Norte 0 -- -- 93
2020-05-09 06:00:00 18.8 6 Noroeste 11 Norte 0 -- -- 92
2020-05-09 05:00:00 18.9 8 Nordeste 12 Nordeste 0 -- -- 91
2020-05-09 04:00:00 19.1 2 Este 18 Sudeste 0 -- -- 90
2020-05-09 03:00:00 19.1 15 Este 21 Sudeste 0 -- -- 90
2020-05-09 02:00:00 19.2 13 Sudeste 22 Sudeste 0 -- -- 88
2020-05-09 01:00:00 19.2 18 Sudeste 25 Sudeste 0 -- -- 91
2020-05-09 00:00:00 19.3 20 Sudeste 32 Sudeste 0 -- -- 89
2020-05-08 23:00:00 19.3 26 Sudeste 31 Sudeste 0 -- -- 90
2020-05-08 22:00:00 19.2 25 Sudeste 31 Sudeste 0 -- -- 89
2020-05-08 21:00:00 19.1 25 Este 36 Este 0 -- -- 89
2020-05-08 20:00:00 19.4 27 Este 36 Este 0 -- -- 87
2020-05-08 19:00:00 19.9 18 Este 26 Nordeste 0 -- -- 82
2020-05-08 18:00:00 20.2 16 Sudeste 32 Sudeste 0 -- -- 81
2020-05-08 17:00:00 20 25 Sudeste 40 Sudeste 0 -- -- 79
2020-05-08 16:00:00 20.5 30 Sudeste 37 Sudeste 0 -- -- 79
2020-05-08 15:00:00 21.3 24 Sudeste 28 Este 0 -- -- 76
2020-05-08 14:00:00 22 18 Este 21 Este 0 -- -- 67
2020-05-08 13:00:00 21.8 16 Este 22 Este 0 -- -- 67
2020-05-08 12:00:00 21.9 15 Este 23 Sudeste 0 -- -- 71
2020-05-08 11:00:00 21.8 19 Este 30 Sudeste 0 -- -- 74
2020-05-08 10:00:00 21.5 24 Sudeste 32 Este 0 -- -- 74
2020-05-08 09:00:00 20.7 24 Este 29 Este 0 -- -- 79
2020-05-08 08:00:00 19.7 22 Este 27 Este 0 -- -- 85
2020-05-08 07:00:00 18.9 18 Este 26 Este 0 -- -- 90
2020-05-08 06:00:00 18.8 18 Este 24 Este 0 -- -- 92
2020-05-08 05:00:00 19 19 Sudeste 24 Sudeste 0 -- -- 91
2020-05-08 04:00:00 18.9 19 Sudeste 25 Sudeste 0 -- -- 91
2020-05-08 03:00:00 18.9 17 Este 22 Sudeste 0 -- -- 91
2020-05-08 02:00:00 18.9 16 Este 22 Este 0 -- -- 92
2020-05-08 01:00:00 19 15 Sudeste 21 Este 0 -- -- 93
2020-05-08 00:00:00 18.9 16 Este 25 Este 0 -- -- 94
2020-05-07 23:00:00 19 23 Este 29 Este 0 -- -- 90
2020-05-07 22:00:00 19 26 Este 35 Este 0 -- -- 87
2020-05-07 21:00:00 19.1 27 Este 32 Este 0 -- -- 87
2020-05-07 20:00:00 19.2 22 Este 31 Este 0 -- -- 86
2020-05-07 19:00:00 19.3 27 Este 33 Este 0 -- -- 85
2020-05-07 18:00:00 20.1 23 Sudeste 27 Este 0 -- -- 82
2020-05-07 17:00:00 20.5 18 Este 32 Nordeste 0 -- -- 86
2020-05-07 16:00:00 21.1 26 Norte 35 Norte 0 -- -- 84
2020-05-07 15:00:00 23.3 26 Norte 34 Norte 0 -- -- 71
2020-05-07 14:00:00 24.4 25 Norte 29 Norte 0 -- -- 67
2020-05-07 13:00:00 23.2 23 Norte 31 Norte 0 -- -- 73
2020-05-07 12:00:00 22.8 24 Noroeste 28 Noroeste 0 -- -- 69
2020-05-07 11:00:00 22.8 20 Noroeste 24 Noroeste 0 -- -- 67
2020-05-07 10:00:00 22.6 19 Noroeste 25 Norte 0 -- -- 66
2020-05-07 09:00:00 21.7 19 Noroeste 25 Noroeste 0 -- -- 67
2020-05-07 08:00:00 21.1 18 Noroeste 22 Noroeste 0 -- -- 66
2020-05-07 07:00:00 19.5 17 Noroeste 22 Noroeste 0 -- -- 77
2020-05-07 06:00:00 19.2 20 Noroeste 25 Noroeste 0 -- -- 94
2020-05-07 05:00:00 19.3 20 Noroeste 25 Norte 0 -- -- 87
2020-05-07 04:00:00 21.4 5 Norte 6 Norte 0 -- -- 42
2020-05-07 03:00:00 21 4 Sudoeste 7 Sudoeste 0 -- -- 44
2020-05-07 02:00:00 20.5 0 Calma 3 Sur 0 -- -- 54
2020-05-07 01:00:00 20.8 0 Calma 5 Sudoeste 0 -- -- 51
2020-05-07 00:00:00 20.7 0 Calma 6 Sur 0 -- -- 56
2020-05-06 23:00:00 21.1 2 Sudoeste 6 Sudoeste 0 -- -- 58
2020-05-06 22:00:00 20.8 0 Calma 8 Noroeste 0 -- -- 62
2020-05-06 21:00:00 20.8 6 Noroeste 8 Noroeste 0 -- -- 66
2020-05-06 20:00:00 21.4 6 Noroeste 12 Noroeste 0 -- -- 64
2020-05-06 19:00:00 22.6 9 Noroeste 16 Noroeste 0 -- -- 59
2020-05-06 18:00:00 23.2 14 Noroeste 18 Noroeste 0 -- -- 61
2020-05-06 17:00:00 24 14 Noroeste 24 Noroeste 0 -- -- 59
2020-05-06 16:00:00 23.2 22 Noroeste 33 Norte 0 -- -- 64
2020-05-06 15:00:00 23.2 30 Norte 37 Norte 0 -- -- 69
2020-05-06 14:00:00 23.4 28 Norte 38 Norte 0 -- -- 70
2020-05-06 13:00:00 22.8 24 Noroeste 41 Noroeste 0 -- -- 70
2020-05-06 12:00:00 22.8 31 Norte 43 Noroeste 0 -- -- 70
2020-05-06 11:00:00 22.5 24 Noroeste 34 Noroeste 0 -- -- 60
2020-05-06 10:00:00 21.3 18 Noroeste 28 Norte 0 -- -- 76
2020-05-06 09:00:00 20.6 23 Noroeste 31 Noroeste 0 -- -- 85
2020-05-06 08:00:00 20.1 10 Norte 30 Noroeste 0 -- -- 83
2020-05-06 07:00:00 18.3 23 Noroeste 32 Noroeste 0 -- -- 94
2020-05-06 06:00:00 18 17 Noroeste 21 Noroeste 0 -- -- 98
2020-05-06 05:00:00 18.3 3 Noroeste 9 Norte 0 -- -- 94
2020-05-06 04:00:00 18.7 3 Noroeste 12 Norte 0 -- -- 95
2020-05-06 03:00:00 18.8 11 Norte 14 Norte 0 -- -- 97
2020-05-06 02:00:00 18.8 2 Este 7 Sudeste 0 -- -- 96
2020-05-06 01:00:00 19.4 6 Sudeste 10 Sudeste 0 -- -- 96
2020-05-06 00:00:00 19.4 3 Noroeste 8 Noroeste 0 -- -- 97
2020-05-05 23:00:00 19.5 3 Sur 9 Sur 0 -- -- 95
2020-05-05 22:00:00 19.8 7 Sudeste 11 Sudeste 0 -- -- 93
2020-05-05 21:00:00 20.1 9 Sudeste 12 Sur 0 -- -- 91
2020-05-05 20:00:00 20.5 6 Este 10 Este 0 -- -- 89
2020-05-05 19:00:00 20.9 8 Este 12 Sudeste 0 -- -- 86
2020-05-05 18:00:00 22 8 Sudeste 14 Sudeste 0 -- -- 80
2020-05-05 17:00:00 22.3 12 Sudeste 18 Sudeste 0 -- -- 79
2020-05-05 16:00:00 22.8 13 Sudeste 16 Sudeste 0 -- -- 75
2020-05-05 15:00:00 23.7 10 Sudeste 16 Sudeste 0 -- -- 70
2020-05-05 14:00:00 24.5 14 Sudeste 18 Sudeste 0 -- -- 67
2020-05-05 13:00:00 24.1 14 Sudeste 16 Sudeste 0 -- -- 68
2020-05-05 12:00:00 24.9 10 Sudoeste 17 Sudoeste 0 -- -- 61
2020-05-05 11:00:00 23.9 7 Sudoeste 20 Sur 0 -- -- 66
2020-05-05 10:00:00 23 0 Calma 12 Sudoeste 0 -- -- 68
2020-05-05 09:00:00 21.2 4 Sur 7 Sudeste 0 -- -- 77
2020-05-05 08:00:00 19.7 0 Calma 6 Sudoeste 0 -- -- 81
2020-05-05 07:00:00 18.7 3 Sudoeste 11 Sudoeste 0 -- -- 78
2020-05-05 06:00:00 18.7 3 Sudoeste 12 Sur 0 -- -- 76
2020-05-05 05:00:00 19.1 10 Sudoeste 15 Sudoeste 0 -- -- 75
2020-05-05 04:00:00 18.9 0 Calma 18 Sudoeste 0 -- -- 76
2020-05-05 03:00:00 19.2 8 Sudoeste 23 Sur 0 -- -- 79
2020-05-05 02:00:00 19.4 15 Sur 24 Sur 0 -- -- 82
2020-05-05 01:00:00 19.5 15 Sur 22 Sur 0 -- -- 86
2020-05-05 00:00:00 19.6 16 Sur 21 Sur 0 -- -- 83
2020-05-04 23:00:00 19.5 10 Sudoeste 23 Sur 0 -- -- 83
2020-05-04 22:00:00 19.6 8 Sur 15 Sur 0 -- -- 89
2020-05-04 21:00:00 20 11 Sur 14 Sudoeste 0 -- -- 81
2020-05-04 20:00:00 20.4 11 Sur 17 Sur 0 -- -- 79
2020-05-04 19:00:00 21.4 8 Sudoeste 17 Sudoeste 0 -- -- 75
2020-05-04 18:00:00 22.6 11 Sudoeste 18 Sudoeste 0 -- -- 71
2020-05-04 17:00:00 23 14 Sur 18 Sudoeste 0 -- -- 71
2020-05-04 16:00:00 25.2 17 Sur 22 Sur 0 -- -- 63
2020-05-04 15:00:00 23.2 15 Sudoeste 22 Sur 0 -- -- 68
2020-05-04 14:00:00 23.1 17 Sur 24 Sur 0 -- -- 68
2020-05-04 13:00:00 24.4 18 Sur 24 Sur 0 -- -- 65
2020-05-04 12:00:00 22.4 18 Sur 30 Sudoeste 0 -- -- 70
2020-05-04 11:00:00 21.9 19 Sur 29 Sudoeste 0 -- -- 64
2020-05-04 10:00:00 21.9 17 Sudoeste 28 Sudoeste 0 -- -- 66
2020-05-04 09:00:00 21.1 13 Sudoeste 27 Sudoeste 0 -- -- 66
2020-05-04 08:00:00 20.4 5 Sudoeste 14 Sudoeste 0 -- -- 75
2020-05-04 07:00:00 18.2 0 Calma 16 Sudoeste 0 -- -- 85
2020-05-04 06:00:00 17.7 3 Sudoeste 19 Sur 0 -- -- 92
2020-05-04 05:00:00 18.1 6 Sudoeste 17 Sudoeste 0 -- -- 98
2020-05-04 04:00:00 18.1 8 Sudoeste 14 Sur 0 -- -- 95
2020-05-04 03:00:00 18.1 0 Calma 12 Sudoeste 0 -- -- 95
2020-05-04 02:00:00 18.3 6 Sudoeste 13 Sudoeste 0 -- -- 95
2020-05-04 01:00:00 18.4 4 Sudoeste 14 Sur 0 -- -- 95
2020-05-04 00:00:00 18.5 2 Oeste 14 Sudoeste 0 -- -- 94
2020-05-03 23:00:00 19 6 Sudoeste 21 Sudoeste 0 -- -- 91
2020-05-03 22:00:00 19.2 8 Sudoeste 22 Sudoeste 0 -- -- 91
2020-05-03 21:00:00 19.3 13 Sudoeste 22 Sur 0 -- -- 93
2020-05-03 20:00:00 19.7 12 Sur 23 Sur 0 -- -- 92
2020-05-03 19:00:00 20.2 15 Sur 24 Sur 0 -- -- 85
2020-05-03 18:00:00 22.6 15 Sur 22 Sur 0 -- -- 72
2020-05-03 17:00:00 23.2 17 Sur 22 Sur 0 -- -- 72
2020-05-03 16:00:00 24.2 17 Sur 21 Sur 0 -- -- 67
2020-05-03 15:00:00 24.7 15 Sur 20 Sur 0 -- -- 65
2020-05-03 14:00:00 24.7 14 Sur 19 Sur 0 -- -- 67
2020-05-03 13:00:00 23.3 15 Sur 21 Sudeste 0 -- -- 70
2020-05-03 12:00:00 23.5 9 Sudeste 12 Sudeste 0 -- -- 71
2020-05-03 11:00:00 22.2 4 Nordeste 11 Nordeste 0 -- -- 81
2020-05-03 10:00:00 23.9 5 Sudeste 8 Sur 0 -- -- 60
2020-05-03 09:00:00 23.2 5 Sur 10 Sur 0 -- -- 59
2020-05-03 08:00:00 21.9 4 Sur 8 Sudeste 0 -- -- 62
2020-05-03 07:00:00 19.3 0 Calma 4 Sudeste 0 -- -- 72
2020-05-03 06:00:00 19.1 0 Calma 15 Noroeste 0 -- -- 76
2020-05-03 05:00:00 19.7 13 Norte 27 Norte 0 -- -- 74
2020-05-03 04:00:00 20.4 21 Norte 29 Norte 0 -- -- 68
2020-05-03 03:00:00 19.8 21 Norte 30 Norte 0 -- -- 86
2020-05-03 02:00:00 21.2 6 Noroeste 12 Oeste 0 -- -- 55
2020-05-03 01:00:00 20.2 8 Sudoeste 13 Oeste 0 -- -- 64
2020-05-03 00:00:00 20.2 4 Sur 8 Sudoeste 0 -- -- 76
2020-05-02 23:00:00 20.8 3 Oeste 14 Sudoeste 0 -- -- 67
2020-05-02 22:00:00 20.5 2 Sudoeste 19 Sur 0 -- -- 70
2020-05-02 21:00:00 20.7 7 Sudoeste 22 Sur 0 -- -- 75
2020-05-02 20:00:00 21.1 9 Sur 15 Sur 0 -- -- 76
2020-05-02 19:00:00 22 6 Sur 15 Este 0 -- -- 75
2020-05-02 18:00:00 22.2 4 Este 22 Este 0 -- -- 74
2020-05-02 17:00:00 22.6 15 Este 22 Este 0 -- -- 69
2020-05-02 16:00:00 23.6 5 Este 30 Sur 0 -- -- 70
2020-05-02 15:00:00 25.2 25 Sur 32 Norte 0 -- -- 63
2020-05-02 14:00:00 27.3 25 Norte 42 Noroeste 0 -- -- 43
2020-05-02 13:00:00 27 20 Norte 51 Noroeste 0 -- -- 43
2020-05-02 12:00:00 26.3 19 Norte 40 Norte 0 -- -- 46
2020-05-02 11:00:00 26.2 14 Norte 32 Noroeste 0 -- -- 50
2020-05-02 10:00:00 24.8 14 Noroeste 38 Noroeste 0 -- -- 53
2020-05-02 09:00:00 24.1 18 Noroeste 54 Norte 0 -- -- 52
2020-05-02 08:00:00 23.6 27 Noroeste 40 Noroeste 0 -- -- 53
2020-05-02 07:00:00 23.3 16 Norte 30 Norte 0 -- -- 53
2020-05-02 06:00:00 23.3 13 Norte 27 Norte 0 -- -- 51
2020-05-02 05:00:00 19.8 6 Norte 17 Noroeste 0 -- -- 70
2020-05-02 04:00:00 21.3 2 Oeste 16 Sur 0 -- -- 57
2020-05-02 03:00:00 19.6 11 Sudoeste 19 Sudoeste 0 -- -- 72
2020-05-02 02:00:00 19.5 8 Sudoeste 16 Sur 0 -- -- 72
2020-05-02 01:00:00 19.6 5 Sudoeste 20 Sudoeste 0 -- -- 71
2020-05-02 00:00:00 19.9 5 Oeste 21 Sudoeste 0 -- -- 70
2020-05-01 23:00:00 20.2 5 Sudeste 21 Sudoeste 0 -- -- 66
2020-05-01 22:00:00 20.8 7 Sudoeste 21 Sudoeste 0 -- -- 61
2020-05-01 21:00:00 21.6 7 Sudoeste 25 Sudoeste 0 -- -- 56
2020-05-01 20:00:00 23.4 11 Sudoeste 31 Oeste 0 -- -- 50
2020-05-01 19:00:00 24.7 11 Sudoeste 36 Sudoeste 0 -- -- 44
2020-05-01 18:00:00 26 9 Oeste 30 Sudoeste 0 -- -- 40
2020-05-01 17:00:00 27.1 9 Sudoeste 25 Oeste 0 -- -- 41
2020-05-01 16:00:00 26 0 Calma 12 Sudeste 0 -- -- 52
2020-05-01 15:00:00 25 13 Sudeste 16 Sur 0 -- -- 53
2020-05-01 14:00:00 25.3 12 Nordeste 15 Nordeste 0 -- -- 48
2020-05-01 13:00:00 24.2 4 Sudeste 18 Sudoeste 0 -- -- 59
2020-05-01 12:00:00 23.4 16 Sur 28 Sur 0 -- -- 55
2020-05-01 11:00:00 22.3 15 Sudoeste 20 Sudoeste 0 -- -- 59
2020-05-01 10:00:00 21.2 13 Sur 21 Sudoeste 0 -- -- 64
2020-05-01 09:00:00 22.4 0 Calma 15 Oeste 0 -- -- 62
2020-05-01 08:00:00 20.5 9 Oeste 14 Oeste 0 -- -- 53
2020-05-01 07:00:00 18.9 10 Sudoeste 15 Oeste 0 -- -- 60
2020-05-01 06:00:00 17.8 6 Oeste 17 Sudoeste 0 -- -- 71
2020-05-01 05:00:00 17.6 6 Sudoeste 19 Sudoeste 0 -- -- 72
2020-05-01 04:00:00 19.1 9 Oeste 23 Oeste 0 -- -- 61
2020-05-01 03:00:00 19.5 19 Oeste 24 Oeste 0 -- -- 57
2020-05-01 02:00:00 18.7 15 Oeste 24 Oeste 0 -- -- 64
2020-05-01 01:00:00 18.2 12 Oeste 28 Oeste 0 -- -- 71
2020-05-01 00:00:00 18.5 11 Sudoeste 24 Oeste 0 -- -- 71
2020-04-30 23:00:00 18.4 6 Sudoeste 22 Oeste 0 -- -- 70
2020-04-30 22:00:00 19.3 8 Sudoeste 21 Oeste 0 -- -- 64
2020-04-30 21:00:00 20.9 4 Sudoeste 22 Sudoeste 0 -- -- 55
2020-04-30 20:00:00 22.4 7 Oeste 24 Oeste 0 -- -- 44
2020-04-30 19:00:00 23.3 5 Noroeste 25 Oeste 0 -- -- 42
2020-04-30 18:00:00 23.9 5 Noroeste 34 Oeste 0 -- -- 40
2020-04-30 17:00:00 25 11 Oeste 39 Oeste 0 -- -- 38
2020-04-30 16:00:00 26.1 13 Oeste 36 Oeste 0 -- -- 36
2020-04-30 15:00:00 25.5 13 Oeste 39 Oeste 0 -- -- 43
2020-04-30 14:00:00 25.6 12 Oeste 36 Oeste 0 -- -- 40
2020-04-30 13:00:00 24.3 9 Sudoeste 31 Oeste 0 -- -- 43
2020-04-30 12:00:00 24.7 8 Oeste 24 Oeste 0 -- -- 46
2020-04-30 11:00:00 24.1 7 Oeste 20 Oeste 0 -- -- 45
2020-04-30 10:00:00 22.5 9 Oeste 19 Sudoeste 0 -- -- 54
2020-04-30 09:00:00 20.2 9 Oeste 24 Oeste 0 -- -- 62
2020-04-30 08:00:00 18.6 10 Sudoeste 24 Sudoeste 0 -- -- 66
2020-04-30 07:00:00 17.8 10 Sudoeste 28 Oeste 0 -- -- 70
2020-04-30 06:00:00 17.4 12 Sudoeste 30 Sudoeste 0 -- -- 75
2020-04-30 05:00:00 17.6 11 Sudoeste 33 Sudoeste 0 -- -- 75
2020-04-30 04:00:00 17.7 13 Sudoeste 41 Sudoeste 0 -- -- 70
2020-04-30 03:00:00 17.5 13 Sudoeste 40 Sudoeste 0 -- -- 69
2020-04-30 02:00:00 17.5 16 Sudoeste 39 Sur 0 -- -- 67
2020-04-30 01:00:00 17.5 14 Oeste 31 Oeste 0 -- -- 63
2020-04-30 00:00:00 17.2 8 Sudoeste 30 Oeste 0 -- -- 63
2020-04-29 23:00:00 17.2 8 Oeste 30 Oeste 0 -- -- 62
2020-04-29 22:00:00 17.8 8 Sudoeste 22 Sudoeste 0 -- -- 53
2020-04-29 21:00:00 18.3 9 Sur 15 Sur 0 -- -- 74
2020-04-29 20:00:00 18.7 5 Sur 8 Este 0 -- -- 67
2020-04-29 19:00:00 18.8 6 Nordeste 15 Este 0 -- -- 66
2020-04-29 18:00:00 19.2 14 Este 20 Este 0 -- -- 66
2020-04-29 17:00:00 19.8 12 Este 17 Este 0 -- -- 71
2020-04-29 16:00:00 20.7 8 Nordeste 12 Nordeste 0 -- -- 64
2020-04-29 15:00:00 20.8 5 Este 10 Este 0 -- -- 72
2020-04-29 14:00:00 20.4 6 Este 13 Este 0 -- -- 75
2020-04-29 13:00:00 20.9 7 Este 13 Este 0 -- -- 72
2020-04-29 12:00:00 21 7 Este -- -- -- -- -- 72
2020-04-29 11:00:00 -- -- -- -- -- -- -- -- --
2020-04-29 10:00:00 20.8 9 Este 14 Este 0 -- -- 66
2020-04-29 09:00:00 19.5 9 Este 19 Este 0 -- -- 75
2020-04-29 08:00:00 18.4 11 Este 17 Este 0 -- -- 83
2020-04-29 07:00:00 16.8 12 Norte 22 Norte 0 -- -- 89
2020-04-29 06:00:00 17.1 10 Norte 20 Este 0 -- -- 79
2020-04-29 05:00:00 17 6 Sudeste 22 Oeste 0 -- -- 74
2020-04-29 04:00:00 16.7 9 Oeste 28 Oeste 0 -- -- 74
2020-04-29 03:00:00 16.9 12 Oeste 31 Sudoeste 0 -- -- 70
2020-04-29 02:00:00 16.9 11 Oeste 30 Oeste 0 -- -- 73
2020-04-29 01:00:00 16.4 9 Sudoeste 23 Oeste 0 -- -- 77
2020-04-29 00:00:00 16.4 6 Sudoeste 21 Sudoeste 0 -- -- 84
2020-04-28 23:00:00 16.6 4 Sudoeste 17 Sudoeste 0 -- -- 74
2020-04-28 22:00:00 17.2 7 Sudoeste 18 Oeste 0 -- -- 63
2020-04-28 21:00:00 18 6 Sudoeste 20 Oeste 0 -- -- 58
2020-04-28 20:00:00 18.3 3 Norte 14 Norte 0 -- -- 82
2020-04-28 19:00:00 18.5 13 Este 31 Nordeste 0 -- -- 72
2020-04-28 18:00:00 18.7 20 Este 24 Nordeste 0 -- -- 77
2020-04-28 17:00:00 19.2 21 Nordeste 31 Nordeste 0 -- -- 74
2020-04-28 16:00:00 20 21 Nordeste 24 Nordeste 0 -- -- 64
2020-04-28 15:00:00 20.2 14 Este 19 Este 0 -- -- 58
2020-04-28 14:00:00 20.5 14 Este 21 Este 0 -- -- 54
2020-04-28 13:00:00 22.2 11 Nordeste 19 Nordeste 0 -- -- 56
2020-04-28 12:00:00 22.4 13 Norte 28 Norte 0 -- -- 59
2020-04-28 11:00:00 22.9 4 Norte 24 Oeste 0 -- -- 43
2020-04-28 10:00:00 22 6 Norte 21 Oeste 0 -- -- 46
2020-04-28 09:00:00 19.8 5 Oeste 19 Sur 0 -- -- 74
2020-04-28 08:00:00 17.1 5 Sudoeste 17 Sur 0 -- -- 87
2020-04-28 07:00:00 15.5 5 Sudoeste 19 Oeste 0 -- -- 93
2020-04-28 06:00:00 15.8 8 Sudoeste 22 Sudoeste 0 -- -- 93
2020-04-28 05:00:00 16.1 5 Oeste 17 Oeste 0 -- -- 92
2020-04-28 04:00:00 16 6 Oeste 20 Oeste 0 -- -- 93
2020-04-28 03:00:00 16.2 8 Sudoeste 24 Sur 0 -- -- 91
2020-04-28 02:00:00 16.7 6 Sudoeste 21 Oeste 0 -- -- 90
2020-04-28 01:00:00 16.8 4 Oeste 17 Oeste 0 -- -- 85
2020-04-28 00:00:00 16.8 8 Oeste 23 Oeste 0 -- -- 87
2020-04-27 23:00:00 16.9 4 Sudoeste 14 Sur 0 -- -- 87
2020-04-27 22:00:00 17.2 3 Sudoeste 15 Oeste 0 -- -- 82
2020-04-27 21:00:00 17.9 4 Oeste 18 Sudoeste 0 -- -- 79
2020-04-27 20:00:00 18.9 8 Oeste 24 Oeste 0 -- -- 73
2020-04-27 19:00:00 19.1 10 Oeste 27 Sur 0 -- -- 72
2020-04-27 18:00:00 18.6 20 Sudoeste 46 Sudoeste 0 -- -- 77
2020-04-27 17:00:00 18.7 23 Sudoeste 50 Sur 0 -- -- 83
2020-04-27 16:00:00 18.3 29 Sudoeste 50 Sudoeste 0 -- -- 82
2020-04-27 15:00:00 19.1 31 Sudoeste 49 Sur 0 -- -- 77
2020-04-27 14:00:00 19.1 28 Sur 48 Sur 0 -- -- 79
2020-04-27 13:00:00 19.1 26 Sur 48 Sur 0 -- -- 78
2020-04-27 12:00:00 19.6 27 Sur 39 Sur 0 -- -- 77
2020-04-27 11:00:00 19.8 14 Sur 27 Oeste 0 -- -- 74
2020-04-27 10:00:00 19.3 9 Sudoeste 25 Sudoeste 0 -- -- 74
2020-04-27 09:00:00 18.5 5 Sudoeste 18 Sur 0 -- -- 78
2020-04-27 08:00:00 17 4 Sudoeste 13 Sudoeste 0 -- -- 85
2020-04-27 07:00:00 15.4 2 Sur 14 Sur 0 -- -- 93
2020-04-27 06:00:00 15.3 3 Sudoeste 14 Sudoeste 0 -- -- 95
2020-04-27 05:00:00 15.4 2 Sudoeste 20 Sudoeste 0 -- -- 94
2020-04-27 04:00:00 15.6 4 Sudoeste 13 Sudoeste 0 -- -- 91
2020-04-27 03:00:00 15.8 3 Sudoeste 15 Sudoeste 0 -- -- 91
2020-04-27 02:00:00 15.9 3 Sudoeste 10 Oeste 0 -- -- 92
2020-04-27 01:00:00 16.3 2 Sur 14 Oeste 0 -- -- 90
2020-04-27 00:00:00 16.6 2 Oeste 15 Sudoeste 0 -- -- 91
2020-04-26 23:00:00 17.1 3 Sudoeste 18 Sur 0 -- -- 91
2020-04-26 22:00:00 17.5 11 Sur 20 Sudoeste 0 -- -- 87
2020-04-26 21:00:00 17.5 6 Sur 10 Sur 0 -- -- 84
2020-04-26 20:00:00 17.8 6 Sudeste 8 Sudeste 0 -- -- 83
2020-04-26 19:00:00 17.9 3 Este 10 Norte 0 -- -- 81
2020-04-26 18:00:00 18.7 10 Norte 19 Norte 0 -- -- 78
2020-04-26 17:00:00 21 16 Norte 23 Noroeste 0 -- -- 69
2020-04-26 16:00:00 21.6 19 Norte 23 Norte 0 -- -- 68
2020-04-26 15:00:00 21.8 20 Norte 24 Norte 0 -- -- 64
2020-04-26 14:00:00 21.8 19 Norte 22 Norte 0 -- -- 67
2020-04-26 13:00:00 21.5 17 Norte 20 Norte 0 -- -- 68
2020-04-26 12:00:00 20.2 17 Norte 20 Norte 0 -- -- 74
2020-04-26 11:00:00 19 15 Norte 21 Nordeste 0 -- -- 79
2020-04-26 10:00:00 -- 0 Calma -- -- 0 -- -- --
2020-04-26 09:00:00 17.7 19 Norte 25 Nordeste 0 -- -- 88
2020-04-26 08:00:00 17 17 Norte 21 Nordeste 0 -- -- 93
2020-04-26 07:00:00 16.8 15 Norte 18 Norte 0 -- -- 94
2020-04-26 06:00:00 17 14 Norte 17 Norte 0 -- -- 97
2020-04-26 05:00:00 17 6 Norte 8 Norte 0 -- -- 96
2020-04-26 04:00:00 17 0 Calma 3 Norte 0 -- -- 97
2020-04-26 03:00:00 17 0 Calma 7 Sudeste 0 -- -- 96
2020-04-26 02:00:00 17 4 Sudeste 6 Sudeste 0 -- -- 97
2020-04-26 01:00:00 17.2 4 Sudeste 11 Nordeste 0 -- -- 96
2020-04-26 00:00:00 17.1 10 Este 16 Este 0 -- -- 95